Time;durP1;ratioP1;P1;durP2;ratioP2;P2;SDS_P1;SDS_P2;PMS_P1;PMS_P2;Temp;Humidity;BMP_temperature;BMP_pressure;BME280_temperature;BME280_humidity;BME280_pressure;Samples;Min_cycle;Max_cycle;Signal;HPM_P1;HPM_P2
2021/03/15 00:00:28;;;;;;;6.87;4.50;;;6.90;94.50;;;6.48;88.45;97931.25;5075633;28;20665;-68
2021/03/15 00:02:56;;;;;;;10.37;5.67;;;6.90;94.20;;;6.42;88.33;97935.03;5073260;28;20682;-68
2021/03/15 00:05:24;;;;;;;9.80;5.07;;;6.90;94.10;;;6.31;88.73;97934.75;5073094;28;20635;-68
2021/03/15 00:07:52;;;;;;;10.00;6.47;;;6.80;94.10;;;6.24;89.32;97946.41;5070094;28;20630;-68
2021/03/15 00:10:20;;;;;;;5.93;4.00;;;6.70;94.30;;;6.23;89.19;97936.94;5071673;28;20725;-68
2021/03/15 00:12:48;;;;;;;8.00;4.60;;;6.70;94.40;;;6.16;88.89;97938.22;5069853;28;20656;-68
2021/03/15 00:15:19;;;;;;;11.90;6.50;;;6.60;94.20;;;6.09;89.29;97921.31;5073043;28;20647;-68
2021/03/15 00:17:47;;;;;;;4.00;3.17;;;6.60;94.40;;;6.09;89.11;97926.50;5073188;28;20712;-68
2021/03/15 00:20:17;;;;;;;5.37;3.17;;;6.60;94.40;;;6.07;89.77;97917.13;5073596;28;20644;-68
2021/03/15 00:22:47;;;;;;;3.60;3.07;;;6.60;94.40;;;6.07;89.62;97917.13;5072854;28;20690;-68
2021/03/15 00:25:16;;;;;;;4.53;3.47;;;6.60;94.50;;;6.05;89.72;97918.16;5073660;28;20648;-68
2021/03/15 00:27:46;;;;;;;3.97;2.87;;;6.50;94.50;;;6.04;89.67;97916.47;5071320;28;20716;-68
2021/03/15 00:30:18;;;;;;;4.40;3.40;;;6.50;94.50;;;6.04;89.67;97913.88;5075740;28;20656;-68
2021/03/15 00:32:48;;;;;;;7.30;4.60;;;6.50;94.50;;;6.04;89.94;97913.88;5070501;28;20723;-68
2021/03/15 00:35:17;;;;;;;9.13;4.90;;;6.50;94.50;;;6.04;89.30;97917.28;5069123;28;20721;-68
2021/03/15 00:37:46;;;;;;;6.77;4.47;;;6.50;94.60;;;6.04;90.32;97912.13;5072524;28;20661;-68
2021/03/15 00:40:17;;;;;;;7.00;4.30;;;6.50;94.70;;;6.06;90.24;97909.44;5073415;28;20694;-68
2021/03/15 00:42:46;;;;;;;4.80;3.90;;;6.50;94.70;;;6.08;90.25;97918.00;5071748;28;20741;-68
2021/03/15 00:45:16;;;;;;;4.90;2.93;;;6.50;94.70;;;6.08;90.24;97915.41;5075368;28;20648;-68
2021/03/15 00:47:44;;;;;;;4.40;3.23;;;6.50;94.80;;;6.09;89.66;97920.50;5070348;28;21246;-68
2021/03/15 00:50:19;;;;;;;4.83;3.33;;;6.50;94.80;;;6.08;90.10;97909.28;5071269;28;20638;-68
2021/03/15 00:52:47;;;;;;;3.93;3.40;;;6.50;94.90;;;6.08;90.12;97904.09;5071419;28;21030;-68
2021/03/15 00:55:14;;;;;;;6.50;3.40;;;6.50;94.90;;;6.10;90.17;97901.44;5070937;28;20639;-68
2021/03/15 00:57:42;;;;;;;3.93;3.07;;;6.50;94.80;;;6.09;89.61;97895.44;5089572;28;20631;-68
2021/03/15 01:00:12;;;;;;;4.27;3.60;;;6.50;94.70;;;6.08;89.68;97897.28;5086440;28;20642;-68
2021/03/15 01:03:13;;;;;;;5.80;3.53;;;6.50;94.60;;;6.08;90.01;97892.94;5065592;28;20651;-68
2021/03/15 01:05:49;;;;;;;6.90;3.70;;;6.50;94.70;;;6.08;89.83;97894.69;5077046;28;20763;-68
2021/03/15 01:08:37;;;;;;;4.97;3.30;;;6.60;94.80;;;6.07;89.75;97893.84;5073979;28;20646;-68
2021/03/15 01:11:09;;;;;;;5.30;3.70;;;6.50;94.70;;;6.07;89.70;97886.06;5074763;28;20689;-68
2021/03/15 01:13:38;;;;;;;5.67;3.90;;;6.50;94.60;;;6.07;89.56;97890.44;5084779;28;20633;-68
2021/03/15 01:16:10;;;;;;;5.80;3.87;;;6.50;94.60;;;6.08;89.55;97886.94;5078599;28;20673;-68
2021/03/15 01:18:39;;;;;;;4.70;3.60;;;6.50;94.60;;;6.07;89.99;97880.91;5082442;28;20649;-68
2021/03/15 01:21:07;;;;;;;6.07;4.27;;;6.50;94.80;;;6.07;89.69;97877.47;5077635;28;20691;-68
2021/03/15 01:23:35;;;;;;;4.50;3.40;;;6.50;94.70;;;6.05;90.04;97874.97;5083632;28;20674;-68
2021/03/15 01:26:02;;;;;;;7.50;4.10;;;6.50;94.80;;;6.08;89.94;97868.81;5081520;28;20644;-68
2021/03/15 01:28:30;;;;;;;4.70;3.60;;;6.50;95.00;;;6.02;90.04;97875.16;5078768;28;20644;-68
2021/03/15 01:30:59;;;;;;;5.93;4.17;;;6.40;94.80;;;5.89;90.69;97865.53;5081324;28;20651;-68
2021/03/15 01:33:28;;;;;;;5.23;4.00;;;6.30;94.90;;;5.87;91.04;97872.56;5078006;28;20631;-68
2021/03/15 01:35:56;;;;;;;6.73;4.53;;;6.20;95.20;;;5.89;90.79;97868.94;5079724;28;20667;-68
2021/03/15 01:38:24;;;;;;;4.63;4.07;;;6.20;95.40;;;5.92;91.34;97863.59;5079154;28;20624;-68
2021/03/15 01:40:52;;;;;;;5.43;3.93;;;6.30;95.60;;;5.98;91.17;97865.88;5078734;28;20643;-68
2021/03/15 01:43:19;;;;;;;5.20;4.07;;;6.40;95.70;;;6.03;91.73;97863.03;5079106;28;20701;-68
2021/03/15 01:45:47;;;;;;;7.30;4.50;;;6.40;95.80;;;6.06;91.32;97857.69;5082393;28;20685;-68
2021/03/15 01:48:15;;;;;;;6.50;4.47;;;6.50;95.80;;;6.07;90.94;97860.19;5084463;28;21032;-68
2021/03/15 01:50:45;;;;;;;6.63;5.03;;;6.50;95.60;;;6.09;90.97;97848.84;5082989;28;20645;-68
2021/03/15 01:53:15;;;;;;;5.47;4.30;;;6.50;95.60;;;6.11;91.24;97849.59;5085340;28;20699;-68
2021/03/15 01:55:43;;;;;;;9.90;4.30;;;6.50;95.60;;;6.09;91.03;97850.63;5084057;28;20734;-68
2021/03/15 01:58:13;;;;;;;7.43;5.00;;;6.50;95.40;;;6.11;90.61;97844.41;5083732;28;20684;-68
2021/03/15 02:00:41;;;;;;;6.13;4.30;;;6.50;95.30;;;6.13;90.90;97841.75;5083775;28;20631;-68
2021/03/15 02:03:12;;;;;;;6.10;4.23;;;6.50;95.30;;;6.13;90.72;97836.56;5083731;28;20646;-69
2021/03/15 02:05:43;;;;;;;7.90;5.53;;;6.50;95.30;;;6.13;90.58;97837.41;5083490;28;20983;-69
2021/03/15 02:08:12;;;;;;;7.23;4.60;;;6.60;95.30;;;6.09;90.63;97838.50;5082118;28;20631;-69
2021/03/15 02:10:41;;;;;;;6.30;5.03;;;6.50;95.60;;;6.07;90.84;97831.72;5082615;28;20654;-69
2021/03/15 02:13:57;;;;;;;6.73;5.33;;;6.50;95.70;;;6.12;91.06;97830.56;5084485;28;20970;-69
2021/03/15 02:16:39;;;;;;;6.30;5.23;;;6.50;95.60;;;6.16;91.18;97824.31;5085433;28;21074;-69
2021/03/15 02:20:13;;;;;;;6.30;4.80;;;6.60;95.70;;;6.10;90.52;97819.47;5088855;28;20634;-69
2021/03/15 02:22:53;;;;;;;6.00;4.57;;;6.50;95.30;;;6.12;90.89;97815.03;5010678;28;20668;-69
2021/03/15 02:26:16;;;;;;;6.57;5.30;;;6.50;95.50;;;6.13;91.06;97803.78;5022347;28;20668;-69
2021/03/15 02:29:27;;;;;;;7.73;4.60;;;6.50;95.50;;;6.19;90.83;97805.16;5071105;28;21254;-69
2021/03/15 02:32:55;;;;;;;7.93;5.90;;;6.60;95.70;;;6.20;91.16;97794.72;5080933;28;22776;-69
2021/03/15 02:35:26;;;;;;;10.03;7.60;;;6.60;95.60;;;6.20;91.38;97793.91;5077285;28;20691;-69
2021/03/15 02:38:01;;;;;;;8.50;5.20;;;6.60;95.60;;;6.22;91.14;97792.91;5085850;28;21088;-69
2021/03/15 02:40:33;;;;;;;8.10;5.27;;;6.70;95.60;;;6.24;91.17;97787.59;5079954;28;20744;-69
2021/03/15 02:43:06;;;;;;;7.60;5.33;;;6.70;95.60;;;6.26;91.04;97791.78;5081509;28;20752;-69
2021/03/15 02:45:37;;;;;;;6.50;4.97;;;6.70;95.60;;;6.28;91.32;97787.34;5081282;28;21017;-69
2021/03/15 02:48:10;;;;;;;12.83;4.43;;;6.70;95.50;;;6.29;90.98;97789.03;5083542;28;20642;-69
2021/03/15 02:50:41;;;;;;;7.07;4.60;;;6.70;95.40;;;6.25;90.25;97784.94;5084951;28;20687;-69
2021/03/15 02:53:14;;;;;;;7.50;4.90;;;6.70;95.10;;;6.20;90.92;97784.38;5084695;28;20632;-69
2021/03/15 02:55:43;;;;;;;6.60;4.93;;;6.60;95.20;;;6.08;90.26;97784.22;5080648;28;20666;-69
2021/03/15 02:58:12;;;;;;;5.80;4.30;;;6.50;94.90;;;5.92;91.21;97774.81;5083098;28;20640;-69
2021/03/15 03:00:41;;;;;;;7.53;4.87;;;6.30;95.10;;;5.76;90.87;97772.22;5081778;28;20750;-69
2021/03/15 03:03:10;;;;;;;7.20;4.77;;;6.10;95.40;;;5.74;91.35;97763.72;5082421;28;20659;-69
2021/03/15 03:05:40;;;;;;;5.20;4.47;;;6.10;95.70;;;5.65;91.44;97761.59;5081476;28;20674;-69
2021/03/15 03:08:19;;;;;;;8.67;4.80;;;6.00;95.70;;;5.59;91.34;97747.31;5078775;28;20677;-68
2021/03/15 03:10:48;;;;;;;7.60;4.30;;;5.90;96.20;;;5.63;91.56;97744.50;5080519;28;20651;-69
2021/03/15 03:13:18;;;;;;;9.27;4.60;;;6.00;96.10;;;5.60;92.38;97736.91;5081809;28;20681;-69
2021/03/15 03:15:47;;;;;;;7.43;4.00;;;6.00;96.20;;;5.60;92.17;97734.31;5080143;28;20725;-69
2021/03/15 03:18:17;;;;;;;6.60;4.37;;;5.90;96.20;;;5.59;92.17;97719.69;5082354;28;20638;-69
2021/03/15 03:20:54;;;;;;;8.57;4.50;;;5.90;96.30;;;5.60;91.59;97720.56;5079886;28;20727;-68
2021/03/15 03:23:26;;;;;;;6.90;4.33;;;5.90;96.20;;;5.62;92.31;97722.13;5092695;28;21161;-68
2021/03/15 03:25:55;;;;;;;8.80;4.57;;;5.90;96.30;;;5.65;91.90;97721.97;5075455;28;20677;-68
2021/03/15 03:28:25;;;;;;;7.00;4.93;;;6.00;96.40;;;5.66;92.13;97713.28;5076703;28;20688;-68
2021/03/15 03:30:55;;;;;;;9.70;4.87;;;6.00;96.30;;;5.74;91.42;97714.59;5074914;28;20676;-68
2021/03/15 03:33:22;;;;;;;6.50;4.80;;;6.10;96.40;;;5.79;91.80;97709.97;5074682;28;20618;-68
2021/03/15 03:35:51;;;;;;;7.07;4.47;;;6.10;96.20;;;5.86;91.17;97706.09;5073806;28;21118;-68
2021/03/15 03:38:38;;;;;;;9.00;4.60;;;6.20;96.00;;;5.89;90.56;97707.69;5071860;28;20632;-69
2021/03/15 03:41:06;;;;;;;5.03;3.90;;;6.30;95.70;;;5.88;90.17;97708.59;5073089;28;20666;-69
2021/03/15 03:43:34;;;;;;;8.33;4.30;;;6.30;95.30;;;5.92;89.97;97705.75;5070650;28;20709;-69
2021/03/15 03:46:02;;;;;;;6.80;4.00;;;6.30;95.30;;;5.98;90.34;97710.59;5070988;28;20745;-69
2021/03/15 03:48:31;;;;;;;6.50;4.40;;;6.40;95.40;;;6.02;89.95;97708.69;5070085;28;21252;-69
2021/03/15 03:51:00;;;;;;;6.23;4.20;;;6.40;95.20;;;6.00;89.57;97705.34;5073485;28;20721;-69
2021/03/15 03:53:36;;;;;;;5.67;4.23;;;6.40;94.90;;;6.03;89.57;97702.56;5071727;28;20636;-69
2021/03/15 03:56:09;;;;;;;16.83;5.30;;;6.40;94.90;;;6.06;89.56;97698.09;5069176;28;20765;-69
2021/03/15 03:58:42;;;;;;;7.70;4.10;;;6.50;94.80;;;6.09;89.11;97703.91;5074695;28;20727;-69
2021/03/15 04:01:13;;;;;;;5.30;4.30;;;6.50;94.70;;;6.10;88.88;97697.81;5070820;28;20771;-69
2021/03/15 04:03:45;;;;;;;8.70;4.10;;;6.50;94.50;;;6.13;88.50;97694.19;5070018;28;21265;-69
2021/03/15 04:06:14;;;;;;;8.33;4.17;;;6.60;94.30;;;6.13;88.42;97694.19;5072145;28;20619;-69
2021/03/15 04:09:05;;;;;;;10.03;4.33;;;6.50;94.30;;;6.12;88.38;97692.56;5067020;28;20728;-69
2021/03/15 04:11:35;;;;;;;7.73;4.13;;;6.60;94.10;;;6.14;88.25;97685.53;5071675;28;20702;-69
2021/03/15 04:14:06;;;;;;;7.83;4.50;;;6.60;94.10;;;6.16;88.12;97694.88;5069780;28;20644;-69
2021/03/15 04:16:36;;;;;;;7.77;4.90;;;6.60;94.10;;;6.16;88.50;97696.63;5088359;28;20612;-69
2021/03/15 04:19:06;;;;;;;5.80;4.45;;;6.60;94.10;;;6.12;88.28;97692.56;5073504;28;20837;-69
2021/03/15 04:21:36;;;;;;;7.87;4.60;;;6.60;94.30;;;6.14;88.32;97685.53;5071027;28;20259;-69
2021/03/15 04:24:07;;;;;;;9.10;5.43;;;6.60;94.10;;;6.16;88.23;97691.44;5071994;28;21086;-69
2021/03/15 04:26:36;;;;;;;6.93;4.27;;;6.60;94.00;;;6.17;87.90;97686.16;5068329;28;20627;-69
2021/03/15 04:29:05;;;;;;;10.40;4.60;;;6.60;93.90;;;6.19;88.45;97681.75;5075047;28;21217;-69
2021/03/15 04:31:33;;;;;;;8.43;4.53;;;6.60;93.90;;;6.22;87.96;97686.75;5069480;28;20630;-69
2021/03/15 04:34:01;;;;;;;7.50;4.93;;;6.60;93.80;;;6.20;87.58;97680.81;5069864;28;21291;-69
2021/03/15 04:36:30;;;;;;;6.17;4.27;;;6.70;93.60;;;6.21;87.79;97682.50;5073828;28;20293;-69
2021/03/15 04:39:00;;;;;;;6.50;4.00;;;6.60;93.40;;;6.23;87.45;97679.81;5068830;28;20820;-69
2021/03/15 04:41:28;;;;;;;4.87;3.53;;;6.70;93.50;;;6.17;87.47;97673.22;5072699;28;20653;-69
2021/03/15 04:43:56;;;;;;;5.80;4.27;;;6.60;93.20;;;6.13;86.83;97664.00;5071916;28;21183;-69
2021/03/15 04:46:23;;;;;;;9.70;4.37;;;6.60;93.10;;;6.08;87.05;97668.59;5069093;28;20631;-69
2021/03/15 04:48:52;;;;;;;3.80;3.10;;;6.50;93.10;;;5.94;87.12;97654.78;5071349;28;20649;-69
2021/03/15 04:51:20;;;;;;;6.87;3.20;;;6.40;93.10;;;5.72;87.97;97648.28;5070716;28;21470;-69
2021/03/15 04:53:49;;;;;;;6.50;3.37;;;6.20;93.60;;;5.56;87.96;97652.63;5065570;28;20685;-69
2021/03/15 04:56:19;;;;;;;6.40;3.53;;;6.00;93.60;;;5.43;88.61;97638.75;5069264;28;21530;-69
2021/03/15 04:58:49;;;;;;;3.93;3.20;;;5.90;94.00;;;5.30;90.07;97644.66;5068320;28;20643;-69
2021/03/15 05:01:20;;;;;;;16.70;4.00;;;5.80;94.50;;;5.16;90.38;97642.84;5070568;28;20655;-69
2021/03/15 05:03:51;;;;;;;5.77;2.97;;;5.60;94.70;;;5.05;90.92;97635.75;5072153;28;21772;-69
2021/03/15 05:06:20;;;;;;;4.07;2.90;;;5.50;95.10;;;4.94;91.35;97633.72;5070574;28;20647;-69
2021/03/15 05:08:50;;;;;;;8.50;3.33;;;5.40;95.40;;;4.92;92.43;97639.91;5071468;28;20690;-69
2021/03/15 05:11:24;;;;;;;4.60;3.17;;;5.30;95.70;;;4.90;92.33;97640.00;5071971;28;20684;-69
2021/03/15 05:13:52;;;;;;;5.80;3.50;;;5.30;96.10;;;4.89;92.58;97630.56;5071909;28;20938;-68
2021/03/15 05:16:20;;;;;;;6.00;3.10;;;5.30;96.20;;;4.90;91.98;97631.41;5071681;28;20749;-68
2021/03/15 05:18:51;;;;;;;6.40;3.20;;;5.30;96.40;;;4.93;91.85;97628.66;5067078;28;20737;-68
2021/03/15 05:21:20;;;;;;;5.13;3.50;;;5.30;96.30;;;5.01;91.75;97629.91;5068712;28;21193;-68
2021/03/15 05:23:47;;;;;;;4.17;2.90;;;5.40;96.30;;;5.11;91.64;97627.66;5074241;28;20661;-68
2021/03/15 05:26:15;;;;;;;5.50;3.00;;;5.50;96.40;;;5.19;92.24;97626.34;5073284;28;20643;-70
2021/03/15 05:28:47;;;;;;;3.70;3.00;;;5.60;96.30;;;5.29;91.85;97624.91;5074691;28;20654;-69
2021/03/15 05:31:20;;;;;;;4.50;2.57;;;5.70;96.40;;;5.36;92.14;97621.06;5076659;28;21193;-69
2021/03/15 05:33:49;;;;;;;4.00;2.83;;;5.70;96.20;;;5.37;91.19;97618.41;5073240;28;20635;-69
2021/03/15 05:36:18;;;;;;;6.97;3.73;;;5.80;95.90;;;5.34;90.77;97613.41;5073010;28;20674;-69
2021/03/15 05:38:45;;;;;;;6.40;3.50;;;5.80;95.70;;;5.30;91.04;97608.47;5074131;28;20823;-69
2021/03/15 05:41:14;;;;;;;4.53;3.27;;;5.70;95.60;;;5.26;90.77;97609.56;5074736;28;21770;-69
2021/03/15 05:44:12;;;;;;;4.80;2.83;;;5.70;95.70;;;5.18;91.33;97604.00;5073369;28;20649;-69
2021/03/15 05:47:23;;;;;;;12.63;3.23;;;5.60;95.70;;;5.07;92.58;97600.34;5076776;28;20983;-69
2021/03/15 05:50:51;;;;;;;3.63;2.93;;;5.50;95.90;;;5.04;92.03;97595.34;5075315;28;21281;-68
2021/03/15 05:54:06;;;;;;;5.43;3.30;;;5.50;96.20;;;4.90;92.21;97590.06;5073341;28;20627;-68
2021/03/15 05:56:42;;;;;;;9.83;3.00;;;5.30;96.30;;;4.78;93.58;97589.00;5073542;28;20670;-68
2021/03/15 05:59:54;;;;;;;4.60;3.03;;;5.20;96.80;;;4.68;94.11;97585.22;5074366;28;22803;-68
2021/03/15 06:03:01;;;;;;;6.37;3.57;;;5.10;97.00;;;4.64;94.50;97567.41;5061097;28;20666;-68
2021/03/15 06:05:29;;;;;;;3.47;2.90;;;5.00;97.30;;;4.60;93.99;97584.00;5074882;28;20667;-70
2021/03/15 06:08:07;;;;;;;7.83;3.87;;;5.00;97.50;;;4.62;94.47;97576.97;5072031;28;20720;-70
2021/03/15 06:10:56;;;;;;;6.40;3.47;;;5.00;97.70;;;4.63;94.87;97570.91;5076239;28;20703;-70
2021/03/15 06:13:25;;;;;;;4.23;2.90;;;5.00;97.90;;;4.60;94.05;97572.81;5073701;28;20634;-70
2021/03/15 06:15:53;;;;;;;5.00;3.33;;;5.00;97.90;;;4.58;95.01;97567.72;5073742;28;21189;-70
2021/03/15 06:18:22;;;;;;;2.80;2.50;;;5.00;97.90;;;4.57;94.55;97566.06;5076123;28;20643;-69
2021/03/15 06:20:50;;;;;;;4.87;3.07;;;5.00;98.00;;;4.63;94.95;97568.34;5073852;28;20632;-68
2021/03/15 06:23:18;;;;;;;4.63;3.10;;;5.00;98.10;;;4.63;94.80;97559.72;5073456;28;20720;-68
2021/03/15 06:25:48;;;;;;;3.93;3.10;;;5.00;98.00;;;4.64;94.74;97559.66;5073725;28;20638;-68
2021/03/15 06:28:17;;;;;;;3.87;2.67;;;5.00;98.10;;;4.62;93.89;97553.75;5074112;28;20634;-68
2021/03/15 06:30:47;;;;;;;3.47;2.57;;;5.00;97.80;;;4.60;94.29;97545.25;5072525;28;20733;-68
2021/03/15 06:33:17;;;;;;;5.20;2.90;;;5.00;97.80;;;4.65;94.25;97557.94;5071305;28;20740;-68
2021/03/15 06:35:55;;;;;;;4.87;2.70;;;5.00;98.20;;;4.60;93.48;97545.25;5070859;28;20658;-68
2021/03/15 06:38:24;;;;;;;3.67;2.47;;;5.00;97.50;;;4.67;94.62;97543.19;5076030;28;20642;-68
2021/03/15 06:41:02;;;;;;;5.23;2.40;;;5.10;97.60;;;4.69;93.94;97543.00;5073418;28;20641;-68
2021/03/15 06:43:30;;;;;;;5.43;2.37;;;5.10;97.60;;;4.76;93.78;97546.91;5072438;28;20654;-68
2021/03/15 06:45:58;;;;;;;8.63;2.90;;;5.10;97.50;;;4.83;93.48;97540.50;5075401;28;20746;-68
2021/03/15 06:48:27;;;;;;;3.30;2.70;;;5.20;97.50;;;4.91;93.76;97540.91;5075671;28;20664;-68
2021/03/15 06:50:56;;;;;;;3.90;2.70;;;5.30;97.60;;;5.03;93.97;97545.41;5073474;28;20725;-68
2021/03/15 06:53:25;;;;;;;2.60;2.40;;;5.40;97.70;;;5.15;94.42;97539.56;5075393;28;20662;-68
2021/03/15 06:55:54;;;;;;;4.27;2.77;;;5.50;98.00;;;5.29;93.79;97544.78;5076275;28;20728;-69
2021/03/15 06:58:25;;;;;;;3.50;2.30;;;5.60;97.70;;;5.39;93.64;97540.75;5072652;28;20642;-68
2021/03/15 07:01:13;;;;;;;4.50;2.50;;;5.70;97.50;;;5.51;92.66;97538.31;5078664;28;20623;-68
2021/03/15 07:03:42;;;;;;;4.47;2.50;;;5.90;97.20;;;5.60;91.96;97527.44;5075467;28;21237;-68
2021/03/15 07:06:11;;;;;;;6.10;3.00;;;6.00;96.90;;;5.72;92.29;97526.72;5075877;28;20648;-65
2021/03/15 07:08:39;;;;;;;2.77;2.23;;;6.10;96.90;;;5.81;91.93;97536.56;5083139;28;20644;-68
2021/03/15 07:11:27;;;;;;;2.90;2.20;;;6.20;96.80;;;5.87;91.70;97533.63;5077540;28;20693;-67
2021/03/15 07:13:55;;;;;;;3.03;2.30;;;6.20;96.60;;;5.93;91.59;97535.84;5086811;28;20756;-66
2021/03/15 07:16:28;;;;;;;4.20;2.83;;;6.30;96.50;;;5.90;91.19;97536.03;5089337;28;21185;-68
2021/03/15 07:19:01;;;;;;;3.80;2.47;;;6.30;96.10;;;5.80;90.89;97530.56;5087583;28;21173;-68
2021/03/15 07:21:38;;;;;;;3.57;2.80;;;6.20;95.80;;;5.76;91.36;97533.44;5091691;28;20640;-67
2021/03/15 07:24:10;;;;;;;3.73;2.50;;;6.20;96.00;;;5.79;91.95;97538.41;5091490;28;21223;-68
2021/03/15 07:26:43;;;;;;;5.23;2.90;;;6.20;96.10;;;5.87;91.69;97536.22;5091033;28;20647;-67
2021/03/15 07:29:14;;;;;;;4.10;3.43;;;6.30;96.20;;;5.99;91.32;97536.31;5083429;28;20634;-67
2021/03/15 07:31:45;;;;;;;2.90;2.33;;;6.40;96.30;;;6.08;90.96;97530.59;5091998;28;20628;-67
2021/03/15 07:34:17;;;;;;;5.17;2.60;;;6.50;96.10;;;6.10;91.31;97532.19;5092458;28;20638;-67
2021/03/15 07:36:48;;;;;;;3.10;2.60;;;6.50;96.00;;;6.10;90.84;97527.00;5091577;28;20633;-68
2021/03/15 07:39:17;;;;;;;6.90;3.70;;;6.50;95.80;;;6.10;90.93;97524.41;5087312;28;20635;-68
2021/03/15 07:41:46;;;;;;;3.43;2.50;;;6.50;95.70;;;6.17;91.17;97532.63;5089981;28;20646;-67
2021/03/15 07:44:18;;;;;;;3.23;2.70;;;6.60;96.00;;;6.17;90.75;97538.63;5087184;28;20659;-68
2021/03/15 07:46:47;;;;;;;5.10;3.28;;;6.60;95.70;;;6.08;90.42;97533.19;5089568;28;20818;-67
2021/03/15 07:49:25;;;;;;;6.87;2.80;;;6.50;95.50;;;6.14;90.69;97538.81;5091798;28;20209;-67
2021/03/15 07:52:00;;;;;;;4.40;2.70;;;6.50;95.80;;;6.17;90.81;97550.75;5088060;28;20643;-68
2021/03/15 07:54:32;;;;;;;5.50;2.80;;;6.50;95.90;;;6.14;90.84;97546.56;5089433;28;20647;-67
2021/03/15 07:57:22;;;;;;;3.43;2.80;;;6.50;95.80;;;6.12;90.97;97542.44;5092284;28;20632;-67
2021/03/15 07:59:51;;;;;;;4.07;2.60;;;6.50;95.80;;;6.13;90.79;97539.75;5092610;28;20626;-68
2021/03/15 08:02:22;;;;;;;5.80;4.20;;;6.50;95.90;;;5.95;90.33;97539.16;5085695;28;20738;-68
2021/03/15 08:04:53;;;;;;;4.60;3.30;;;6.40;95.50;;;5.65;91.20;97536.59;5072656;28;20634;-67
2021/03/15 08:07:22;;;;;;;3.93;2.20;;;6.10;95.60;;;5.53;91.76;97546.78;5075616;28;20642;-67
2021/03/15 08:09:52;;;;;;;2.43;1.80;;;5.90;95.70;;;5.30;91.52;97546.44;5075763;28;20639;-67
2021/03/15 08:12:25;;;;;;;3.17;2.07;;;5.70;95.70;;;5.18;92.86;97555.72;5083994;28;20653;-67
2021/03/15 08:15:00;;;;;;;2.50;2.00;;;5.60;96.60;;;5.18;92.51;97550.53;5084792;28;21359;-67
2021/03/15 08:17:30;;;;;;;3.07;2.27;;;5.50;96.70;;;5.24;93.86;97550.19;5082846;28;20634;-67
2021/03/15 08:20:03;;;;;;;3.70;2.10;;;5.60;97.20;;;5.22;92.67;97551.22;5088275;28;20639;-67
2021/03/15 08:22:37;;;;;;;2.57;1.77;;;5.50;97.00;;;5.31;92.66;97561.06;5090710;28;20720;-67
2021/03/15 08:25:09;;;;;;;4.70;2.40;;;5.60;97.20;;;5.24;92.69;97551.97;5086782;28;20722;-67
2021/03/15 08:27:39;;;;;;;2.53;2.00;;;5.60;97.10;;;5.22;93.75;97561.56;5087191;28;20733;-67
2021/03/15 08:30:15;;;;;;;2.57;1.97;;;5.60;97.30;;;5.18;94.03;97555.72;5091756;28;20616;-67
2021/03/15 08:32:44;;;;;;;5.20;2.20;;;5.50;97.30;;;5.15;93.20;97561.03;5088918;28;20637;-67
2021/03/15 08:35:17;;;;;;;7.93;4.17;;;5.50;97.50;;;5.26;94.73;97557.88;5087785;28;20689;-68
2021/03/15 08:37:58;;;;;;;2.60;2.10;;;5.60;98.00;;;5.35;93.67;97555.63;5089942;28;20730;-67
2021/03/15 08:40:58;;;;;;;4.17;2.67;;;5.70;97.80;;;5.41;94.67;97560.44;5084343;28;20726;-68
2021/03/15 08:43:47;;;;;;;4.90;3.50;;;5.70;97.90;;;5.57;93.55;97557.81;5084103;28;21058;-68
2021/03/15 08:46:19;;;;;;;3.53;2.70;;;5.90;98.00;;;5.69;93.81;97553.59;5085894;28;20635;-68
2021/03/15 08:49:21;;;;;;;1.83;1.43;;;6.00;98.00;;;5.80;93.29;97547.81;5092044;28;20626;-67
2021/03/15 08:51:49;;;;;;;2.87;1.47;;;6.10;97.90;;;5.88;93.31;97553.38;5089724;28;20633;-67
2021/03/15 08:54:48;;;;;;;2.30;1.80;;;6.20;97.60;;;6.00;92.81;97553.50;5089441;28;20969;-67
2021/03/15 08:57:35;;;;;;;3.90;1.90;;;6.30;97.50;;;6.08;92.49;97549.53;5093899;28;20638;-67
2021/03/15 09:00:33;;;;;;;2.43;1.80;;;6.40;97.20;;;6.17;92.34;97550.75;5094306;28;20729;-68
2021/03/15 09:03:01;;;;;;;2.63;2.27;;;6.50;97.20;;;6.24;91.99;97552.88;5088599;28;20648;-68
2021/03/15 09:05:30;;;;;;;2.60;2.00;;;6.60;96.90;;;6.26;92.10;97557.97;5092773;28;20636;-68
2021/03/15 09:08:00;;;;;;;2.10;1.83;;;6.60;96.70;;;6.33;91.68;97547.16;5094557;28;20692;-68
2021/03/15 09:10:38;;;;;;;2.30;2.10;;;6.70;96.70;;;6.45;92.00;97555.91;5094911;28;20634;-68
2021/03/15 09:13:24;;;;;;;1.70;1.50;;;6.80;96.60;;;6.53;91.92;97557.13;5092871;28;21286;-68
2021/03/15 09:15:56;;;;;;;2.43;2.00;;;6.90;96.60;;;6.55;91.37;97552.69;5088378;28;20645;-68
2021/03/15 09:18:55;;;;;;;1.97;1.73;;;6.90;96.50;;;6.56;91.02;97555.19;5092671;28;21162;-68
2021/03/15 09:21:51;;;;;;;2.03;1.80;;;6.90;96.20;;;6.57;90.24;97548.25;5092612;28;20643;-68
2021/03/15 09:24:54;;;;;;;2.10;1.60;;;6.90;96.20;;;6.61;91.11;97547.13;5090373;28;20651;-68
2021/03/15 09:27:35;;;;;;;2.10;1.87;;;6.90;96.80;;;6.67;91.37;97552.75;5095281;28;20635;-68
2021/03/15 09:30:14;;;;;;;2.30;1.80;;;7.00;96.60;;;6.69;90.96;97550.91;5092345;28;20642;-68
2021/03/15 09:32:45;;;;;;;2.60;1.93;;;7.10;96.40;;;6.74;91.05;97554.03;5091172;28;20638;-68
2021/03/15 09:35:21;;;;;;;3.00;1.87;;;7.10;96.30;;;6.81;91.39;97555.34;5091181;28;21080;-68
2021/03/15 09:37:53;;;;;;;2.70;2.50;;;7.20;96.30;;;6.90;90.74;97554.78;5091388;28;20640;-68
2021/03/15 09:40:27;;;;;;;3.33;2.17;;;7.20;96.30;;;6.96;91.71;97553.53;5091425;28;21154;-68
2021/03/15 09:42:56;;;;;;;2.70;2.50;;;7.30;96.40;;;6.97;90.87;97563.00;5088332;28;20862;-68
2021/03/15 09:45:34;;;;;;;2.40;2.10;;;7.40;96.60;;;7.01;90.65;97559.28;5092600;28;21002;-68
2021/03/15 09:48:17;;;;;;;2.37;2.00;;;7.40;96.30;;;7.05;92.04;97559.81;5093462;28;20616;-68
2021/03/15 09:50:48;;;;;;;2.27;2.03;;;7.40;96.60;;;7.09;90.86;97556.09;5087378;28;20635;-68
2021/03/15 09:53:20;;;;;;;3.23;1.80;;;7.50;96.30;;;7.16;90.86;97559.16;5089433;28;20621;-68
2021/03/15 09:56:05;;;;;;;3.07;2.00;;;7.50;96.30;;;7.23;90.27;97558.66;5087200;28;20667;-68
2021/03/15 09:58:38;;;;;;;2.57;2.30;;;7.60;96.20;;;7.27;90.34;97557.50;5088937;28;20700;-68
2021/03/15 10:01:14;;;;;;;2.50;2.30;;;7.70;96.00;;;7.27;91.65;97554.91;5090519;28;20740;-68
2021/03/15 10:04:06;;;;;;;2.97;2.07;;;7.70;96.00;;;7.31;91.90;97553.81;5084593;28;20665;-68
2021/03/15 10:06:44;;;;;;;2.30;2.10;;;7.70;96.40;;;7.34;90.76;97551.03;5088504;28;21610;-68
2021/03/15 10:09:31;;;;;;;2.83;2.43;;;7.70;96.00;;;7.32;91.51;97555.47;5088842;28;20645;-68
2021/03/15 10:12:24;;;;;;;3.60;2.40;;;7.70;96.30;;;7.35;91.98;97544.91;5090644;28;20636;-68
2021/03/15 10:15:12;;;;;;;2.00;1.80;;;7.80;96.10;;;7.34;91.05;97552.78;5086504;28;20637;-68
2021/03/15 10:18:07;;;;;;;3.80;2.60;;;7.80;96.10;;;7.28;92.15;97550.59;5080139;28;21194;-68
2021/03/15 10:21:01;;;;;;;4.73;2.90;;;7.70;96.20;;;7.28;92.44;97550.59;5086841;28;20721;-68
2021/03/15 10:23:34;;;;;;;3.93;2.50;;;7.70;96.40;;;7.32;92.53;97554.63;5090288;28;20660;-69
2021/03/15 10:26:06;;;;;;;5.30;2.90;;;7.70;96.50;;;7.30;92.25;97557.31;5091202;28;20732;-68
2021/03/15 10:28:55;;;;;;;2.80;2.43;;;7.70;96.70;;;7.36;92.66;97556.94;5091620;28;20642;-67
2021/03/15 10:31:30;;;;;;;4.67;2.43;;;7.80;96.80;;;7.40;93.28;97553.22;5087596;28;20631;-64
2021/03/15 10:34:02;;;;;;;3.97;2.97;;;7.80;96.80;;;7.40;92.11;97557.59;5086604;28;20664;-66
2021/03/15 10:36:43;;;;;;;3.10;2.67;;;7.80;97.00;;;7.43;92.81;97559.94;5083539;28;20716;-66
2021/03/15 10:39:26;;;;;;;3.70;3.30;;;7.90;97.20;;;7.45;92.69;97561.53;5080202;28;20660;-66
2021/03/15 10:41:56;;;;;;;3.73;2.77;;;7.80;96.90;;;7.44;92.82;97567.63;5089587;28;20634;-67
2021/03/15 10:44:31;;;;;;;4.07;3.60;;;7.90;96.90;;;7.40;92.80;97561.00;5089764;28;21272;-66
2021/03/15 10:47:05;;;;;;;4.33;3.20;;;7.80;97.00;;;7.45;92.91;97566.72;5089181;28;20662;-65
2021/03/15 10:49:39;;;;;;;3.83;3.30;;;7.80;97.10;;;7.48;93.71;97564.75;5089958;28;20990;-66
2021/03/15 10:52:37;;;;;;;4.00;3.50;;;7.90;97.30;;;7.54;93.22;97555.75;5092336;28;20630;-66
2021/03/15 10:55:13;;;;;;;4.77;3.57;;;7.90;97.10;;;7.56;91.90;97564.25;5086060;28;20623;-66
2021/03/15 10:58:08;;;;;;;8.73;5.77;;;7.90;97.00;;;7.60;93.80;97568.31;5083706;28;20667;-66
2021/03/15 11:00:44;;;;;;;5.40;4.00;;;8.00;97.30;;;7.60;93.62;97569.16;5090086;28;21201;-66
2021/03/15 11:03:21;;;;;;;5.63;3.80;;;8.00;97.20;;;7.69;93.30;97572.91;5086905;28;21142;-66
2021/03/15 11:06:05;;;;;;;10.10;4.57;;;8.00;97.20;;;7.69;92.09;97570.31;5090791;28;21003;-66